createdAt,value
2017-06-26T00:00:52.756Z,46.55
2017-06-26T00:01:52.778Z,46.35
2017-06-26T00:02:52.819Z,46.35
2017-06-26T00:03:52.845Z,46.35
2017-06-26T00:04:52.868Z,46.55
2017-06-26T00:05:52.902Z,46.06
2017-06-26T00:06:52.617Z,46.45
2017-06-26T00:07:52.964Z,46.55
2017-06-26T00:08:52.988Z,46.55
2017-06-26T00:09:53.017Z,46.45
2017-06-26T00:10:53.041Z,46.15
2017-06-26T00:11:53.078Z,46.64
2017-06-26T00:12:52.805Z,46.45
2017-06-26T00:13:53.136Z,46.55
2017-06-26T00:14:53.472Z,46.25
2017-06-26T00:15:53.192Z,46.15
2017-06-26T00:16:53.223Z,46.55
2017-06-26T00:17:53.253Z,46.55
2017-06-26T00:18:52.976Z,46.35
2017-06-26T00:19:53.573Z,46.15
2017-06-26T00:20:53.037Z,46.25
2017-06-26T00:21:53.382Z,46.06
2017-06-26T00:22:53.403Z,46.55
2017-06-26T00:23:53.433Z,46.35
2017-06-26T00:24:53.720Z,46.35
2017-06-26T00:25:53.489Z,46.35
2017-06-26T00:26:53.527Z,46.25
2017-06-26T00:27:53.547Z,46.15
2017-06-26T00:28:53.579Z,46.25
2017-06-26T00:29:53.552Z,46.64
2017-06-26T00:30:53.641Z,46.25
2017-06-26T00:31:53.666Z,46.94
2017-06-26T00:32:53.699Z,46.74
2017-06-26T00:33:53.416Z,46.74
2017-06-26T00:34:54.066Z,46.35
2017-06-26T00:35:53.473Z,46.25
2017-06-26T00:36:53.510Z,46.64
2017-06-26T00:37:53.855Z,46.25
2017-06-26T00:38:53.571Z,46.35
2017-06-26T00:39:54.164Z,46.35
2017-06-26T00:40:53.939Z,46.06
2017-06-26T00:41:53.967Z,46.15
2017-06-26T00:42:53.683Z,46.06
2017-06-26T00:43:54.031Z,46.35
2017-06-26T00:44:54.308Z,46.25
2017-06-26T00:45:54.086Z,46.45
2017-06-26T00:46:54.111Z,46.15
2017-06-26T00:47:54.148Z,46.25
2017-06-26T00:48:54.180Z,46.15
2017-06-26T00:49:54.457Z,46.45
2017-06-26T00:50:54.235Z,46.15
2017-06-26T00:51:53.951Z,46.45
2017-06-26T00:52:54.282Z,46.35
2017-06-26T00:53:54.321Z,46.74
2017-06-26T00:54:54.652Z,46.74
2017-06-26T00:55:54.379Z,46.35
2017-06-26T00:56:54.409Z,46.84
2017-06-26T00:57:54.123Z,46.15
2017-06-26T00:58:54.466Z,46.55
2017-06-26T00:59:54.495Z,46.55
2017-06-26T01:00:54.219Z,46.55
2017-06-26T01:01:54.553Z,46.64
2017-06-26T01:02:54.588Z,46.74
2017-06-26T01:03:54.308Z,46.55
2017-06-26T01:04:54.337Z,46.55
2017-06-26T01:05:54.675Z,46.74
2017-06-26T01:06:54.403Z,46.64
2017-06-26T01:07:54.739Z,46.55
2017-06-26T01:08:54.767Z,46.55
2017-06-26T01:09:54.801Z,46.64
2017-06-26T01:10:54.506Z,46.64
2017-06-26T01:11:54.858Z,46.55
2017-06-26T01:12:54.572Z,46.55
2017-06-26T01:13:54.913Z,46.55
2017-06-26T01:14:54.947Z,46.64
2017-06-26T01:15:54.970Z,46.25
2017-06-26T01:16:55.003Z,46.35
2017-06-26T01:17:55.031Z,46.45
2017-06-26T01:18:55.068Z,46.74
2017-06-26T01:19:55.093Z,46.64
2017-06-26T01:20:55.123Z,46.74
2017-06-26T01:21:55.156Z,46.25
2017-06-26T01:22:55.183Z,46.64
2017-06-26T01:23:55.205Z,46.55
2017-06-26T01:24:55.243Z,46.64
2017-06-26T01:25:55.266Z,46.55
2017-06-26T01:26:55.295Z,46.06
2017-06-26T01:27:55.021Z,46.55
2017-06-26T01:28:55.361Z,46.74
2017-06-26T01:29:55.394Z,46.55
2017-06-26T01:30:55.414Z,46.55
2017-06-26T01:31:55.445Z,46.64
2017-06-26T01:32:55.471Z,46.74
2017-06-26T01:33:55.509Z,46.55
2017-06-26T01:34:55.222Z,46.74
2017-06-26T01:35:55.565Z,46.74
2017-06-26T01:36:55.591Z,46.84
2017-06-26T01:37:55.613Z,47.03
2017-06-26T01:38:55.347Z,46.72
2017-06-26T01:39:55.371Z,46.64
2017-06-26T01:40:55.398Z,47.13
2017-06-26T01:41:55.427Z,46.64
2017-06-26T01:42:55.455Z,46.74
2017-06-26T01:43:55.807Z,47.13
2017-06-26T01:44:55.834Z,46.64
2017-06-26T01:45:55.546Z,46.64
2017-06-26T01:46:55.573Z,47.2
2017-06-26T01:47:55.924Z,47.13
2017-06-26T01:48:55.946Z,46.74
2017-06-26T01:49:55.668Z,47.13
2017-06-26T01:50:56.011Z,46.84
2017-06-26T01:51:55.725Z,46.94
2017-06-26T01:52:56.069Z,47.01
2017-06-26T01:53:55.785Z,47.13
2017-06-26T01:54:55.817Z,46.84
2017-06-26T01:55:56.156Z,46.84
2017-06-26T01:56:56.188Z,46.74
2017-06-26T01:57:56.217Z,46.62
2017-06-26T01:58:56.251Z,46.94
2017-06-26T01:59:56.275Z,46.81
2017-06-26T02:00:56.298Z,47.01
2017-06-26T02:01:56.340Z,46.84
2017-06-26T02:02:56.049Z,46.81
2017-06-26T02:03:56.393Z,47.11
2017-06-26T02:04:56.426Z,46.81
2017-06-26T02:05:56.455Z,46.94
2017-06-26T02:06:56.484Z,47.13
2017-06-26T02:07:56.513Z,47.01
2017-06-26T02:08:56.230Z,47.3
2017-06-26T02:09:56.259Z,46.91
2017-06-26T02:10:56.600Z,46.81
2017-06-26T02:11:56.635Z,46.72
2017-06-26T02:12:56.658Z,46.91
2017-06-26T02:13:56.682Z,46.81
2017-06-26T02:14:56.714Z,46.81
2017-06-26T02:15:56.444Z,46.81
2017-06-26T02:16:56.775Z,47.01
2017-06-26T02:17:56.808Z,46.91
2017-06-26T02:18:56.833Z,47.11
2017-06-26T02:19:56.865Z,46.81
2017-06-26T02:20:56.584Z,46.81
2017-06-26T02:21:56.927Z,46.84
2017-06-26T02:22:56.961Z,47.01
2017-06-26T02:23:56.986Z,47.01
2017-06-26T02:24:57.010Z,47.01
2017-06-26T02:25:57.056Z,46.81
2017-06-26T02:26:57.090Z,47.3
2017-06-26T02:27:57.101Z,47.01
2017-06-26T02:28:56.814Z,46.81
2017-06-26T02:29:57.158Z,46.84
2017-06-26T02:30:57.187Z,46.72
2017-06-26T02:31:57.211Z,46.74
2017-06-26T02:32:56.942Z,46.72
2017-06-26T02:33:57.283Z,47.01
2017-06-26T02:34:57.307Z,46.91
2017-06-26T02:35:57.041Z,47.2
2017-06-26T02:36:57.369Z,47.49
2017-06-26T02:37:57.392Z,47.59
2017-06-26T02:38:57.429Z,47.52
2017-06-26T02:39:57.455Z,47.32
2017-06-26T02:40:57.488Z,47.3
2017-06-26T02:41:57.513Z,47.32
2017-06-26T02:42:57.548Z,47.42
2017-06-26T02:43:57.575Z,47.59
2017-06-26T02:44:57.289Z,47.3
2017-06-26T02:45:57.323Z,47.3
2017-06-26T02:46:57.664Z,47.3
2017-06-26T02:47:57.694Z,47.11
2017-06-26T02:48:57.723Z,47.4
2017-06-26T02:49:57.754Z,47.3
2017-06-26T02:50:57.783Z,47.4
2017-06-26T02:51:57.812Z,47.4
2017-06-26T02:52:57.841Z,47.4
2017-06-26T02:53:57.866Z,47.4
2017-06-26T02:54:57.893Z,47.69
2017-06-26T02:55:57.925Z,47.4
2017-06-26T02:56:57.964Z,47.49
2017-06-26T02:57:57.994Z,47.3
2017-06-26T02:58:58.016Z,47.4
2017-06-26T02:59:58.040Z,47.4
2017-06-26T03:00:58.077Z,47.4
2017-06-26T03:01:58.102Z,47.4
2017-06-26T03:02:58.139Z,47.4
2017-06-26T03:03:58.163Z,47.4
2017-06-26T03:04:57.879Z,47.4
2017-06-26T03:05:57.909Z,47.59
2017-06-26T03:06:58.249Z,47.3
2017-06-26T03:07:58.278Z,47.69
2017-06-26T03:08:58.315Z,47.4
2017-06-26T03:09:58.342Z,47.3
2017-06-26T03:10:58.060Z,47.49
2017-06-26T03:11:58.397Z,47.4
2017-06-26T03:12:58.426Z,47.59
2017-06-26T03:13:58.463Z,47.4
2017-06-26T03:14:58.171Z,47.49
2017-06-26T03:15:58.776Z,47.4
2017-06-26T03:16:58.233Z,47.59
2017-06-26T03:17:58.578Z,47.4
2017-06-26T03:18:58.605Z,47.49
2017-06-26T03:19:58.643Z,47.4
2017-06-26T03:20:58.916Z,47.3
2017-06-26T03:21:58.697Z,47.4
2017-06-26T03:22:58.730Z,47.4
2017-06-26T03:23:58.747Z,47.4
2017-06-26T03:24:58.777Z,47.3
2017-06-26T03:25:59.064Z,47.4
2017-06-26T03:26:58.842Z,47.49
2017-06-26T03:27:58.870Z,47.4
2017-06-26T03:28:58.591Z,47.3
2017-06-26T03:29:58.620Z,47.4
2017-06-26T03:30:59.202Z,47.59
2017-06-26T03:31:58.674Z,47.4
2017-06-26T03:32:59.019Z,47.49
2017-06-26T03:33:59.055Z,47.59
2017-06-26T03:34:59.079Z,47.78
2017-06-26T03:35:59.049Z,47.4
2017-06-26T03:36:59.137Z,47.88
2017-06-26T03:37:59.170Z,47.88
2017-06-26T03:38:59.196Z,47.78
2017-06-26T03:39:58.915Z,47.59
2017-06-26T03:40:59.555Z,47.69
2017-06-26T03:41:58.969Z,47.49
2017-06-26T03:42:59.003Z,47.78
2017-06-26T03:43:59.032Z,47.69
2017-06-26T03:44:59.372Z,47.4
2017-06-26T03:45:59.404Z,47.4
2017-06-26T03:46:59.434Z,47.78
2017-06-26T03:47:59.462Z,47.69
2017-06-26T03:48:59.509Z,47.78
2017-06-26T03:49:59.537Z,47.69
2017-06-26T03:50:59.565Z,47.59
2017-06-26T03:51:59.594Z,47.88
2017-06-26T03:52:59.615Z,47.78
2017-06-26T03:53:59.345Z,47.69
2017-06-26T03:54:59.672Z,47.78
2017-06-26T03:55:59.688Z,47.69
2017-06-26T03:56:59.417Z,47.88
2017-06-26T03:57:59.758Z,47.59
2017-06-26T03:58:59.779Z,47.88
2017-06-26T03:59:59.504Z,47.4
2017-06-26T04:00:59.847Z,47.69
2017-06-26T04:01:59.873Z,47.78
2017-06-26T04:02:59.591Z,47.49
2017-06-26T04:03:59.934Z,47.78
2017-06-26T04:04:59.960Z,47.59
2017-06-26T04:05:59.989Z,47.59
2017-06-26T04:07:00.018Z,47.88
2017-06-26T04:08:00.050Z,47.49
2017-06-26T04:09:00.085Z,47.98
2017-06-26T04:10:00.107Z,47.98
2017-06-26T04:11:00.142Z,47.69
2017-06-26T04:11:59.858Z,47.78
2017-06-26T04:13:00.194Z,47.88
2017-06-26T04:13:59.911Z,47.88
2017-06-26T04:15:00.257Z,48.08
2017-06-26T04:16:00.286Z,47.98
2017-06-26T04:17:00.313Z,47.98
2017-06-26T04:18:00.342Z,47.88
2017-06-26T04:19:00.371Z,47.69
2017-06-26T04:20:00.405Z,47.88
2017-06-26T04:21:00.433Z,47.78
2017-06-26T04:22:00.447Z,48.08
2017-06-26T04:23:00.175Z,47.98
2017-06-26T04:24:00.524Z,47.88
2017-06-26T04:25:00.549Z,47.78
2017-06-26T04:26:00.265Z,47.69
2017-06-26T04:27:00.862Z,47.59
2017-06-26T04:28:00.639Z,48.08
2017-06-26T04:29:00.659Z,47.88
2017-06-26T04:30:00.701Z,48.08
2017-06-26T04:31:00.729Z,47.57
2017-06-26T04:32:00.747Z,47.78
2017-06-26T04:33:00.782Z,47.78
2017-06-26T04:34:00.504Z,47.69
2017-06-26T04:35:00.840Z,47.69
2017-06-26T04:36:00.874Z,47.49
2017-06-26T04:37:01.153Z,47.59
2017-06-26T04:38:00.931Z,47.59
2017-06-26T04:39:00.963Z,47.69
2017-06-26T04:40:00.992Z,47.69
2017-06-26T04:41:01.023Z,47.49
2017-06-26T04:42:01.035Z,47.78
2017-06-26T04:43:01.075Z,47.98
2017-06-26T04:44:00.800Z,47.88
2017-06-26T04:45:01.132Z,47.88
2017-06-26T04:46:01.164Z,47.69
2017-06-26T04:47:01.490Z,47.98
2017-06-26T04:48:01.228Z,47.98
2017-06-26T04:49:01.252Z,47.59
2017-06-26T04:50:01.286Z,47.98
2017-06-26T04:51:01.002Z,47.78
2017-06-26T04:52:01.598Z,47.88
2017-06-26T04:53:01.372Z,47.88
2017-06-26T04:54:01.092Z,48.37
2017-06-26T04:55:01.429Z,48.37
2017-06-26T04:56:01.454Z,48.27
2017-06-26T04:57:01.487Z,48.66
2017-06-26T04:58:01.521Z,47.69
2017-06-26T04:59:01.549Z,47.59
2017-06-26T05:00:01.574Z,48.35
2017-06-26T05:01:01.598Z,48.35
2017-06-26T05:02:01.324Z,48.66
2017-06-26T05:03:01.668Z,47.88
2017-06-26T05:04:01.697Z,48.18
2017-06-26T05:05:01.717Z,47.78
2017-06-26T05:06:01.757Z,47.69
2017-06-26T05:07:01.470Z,48.05
2017-06-26T05:08:01.811Z,48.37
2017-06-26T05:09:01.523Z,48.66
2017-06-26T05:10:01.871Z,48.64
2017-06-26T05:11:01.901Z,48.64
2017-06-26T05:12:01.623Z,48.47
2017-06-26T05:13:01.958Z,48.66
2017-06-26T05:14:01.988Z,48.57
2017-06-26T05:15:01.709Z,48.47
2017-06-26T05:16:02.051Z,48.57
2017-06-26T05:17:02.074Z,48.35
2017-06-26T05:18:02.102Z,48.08
2017-06-26T05:19:02.136Z,48.27
2017-06-26T05:20:01.861Z,48.37
2017-06-26T05:21:02.195Z,48.47
2017-06-26T05:22:02.226Z,48.08
2017-06-26T05:23:02.256Z,48.27
2017-06-26T05:24:02.289Z,48.37
2017-06-26T05:25:02.309Z,48.08
2017-06-26T05:26:02.029Z,48.08
2017-06-26T05:27:02.371Z,48.66
2017-06-26T05:28:02.655Z,48.66
2017-06-26T05:29:02.429Z,48.47
2017-06-26T05:30:02.136Z,48.08
2017-06-26T05:31:02.486Z,48.57
2017-06-26T05:32:02.515Z,48.75
2017-06-26T05:33:02.535Z,48.47
2017-06-26T05:34:02.582Z,48.08
2017-06-26T05:35:02.605Z,48.18
2017-06-26T05:36:02.629Z,48.08
2017-06-26T05:37:02.663Z,48.57
2017-06-26T05:38:02.944Z,48.47
2017-06-26T05:39:02.724Z,48.47
2017-06-26T05:40:02.750Z,48.27
2017-06-26T05:41:02.479Z,48.37
2017-06-26T05:42:02.810Z,48.37
2017-06-26T05:43:03.095Z,48.47
2017-06-26T05:44:02.562Z,48.66
2017-06-26T05:45:02.901Z,48.66
2017-06-26T05:46:02.926Z,48.66
2017-06-26T05:47:02.956Z,48.37
2017-06-26T05:48:03.239Z,48.37
2017-06-26T05:49:02.705Z,48.57
2017-06-26T05:50:03.050Z,48.27
2017-06-26T05:51:03.070Z,48.37
2017-06-26T05:52:03.107Z,48.18
2017-06-26T05:53:03.075Z,48.08
2017-06-26T05:54:03.168Z,48.37
2017-06-26T05:55:03.193Z,48.27
2017-06-26T05:56:03.221Z,48.47
2017-06-26T05:57:03.272Z,48.66
2017-06-26T05:58:03.584Z,48.08
2017-06-26T05:59:03.001Z,48.18
2017-06-26T06:00:03.029Z,48.47
2017-06-26T06:01:03.055Z,48.18
2017-06-26T06:02:03.394Z,48.27
2017-06-26T06:03:03.119Z,48.27
2017-06-26T06:04:03.457Z,48.47
2017-06-26T06:05:03.174Z,48.37
2017-06-26T06:06:03.519Z,48.37
2017-06-26T06:07:03.559Z,48.37
2017-06-26T06:08:03.568Z,48.37
2017-06-26T06:09:03.600Z,48.08
2017-06-26T06:10:03.633Z,48.18
2017-06-26T06:11:03.666Z,48.18
2017-06-26T06:12:03.694Z,48.37
2017-06-26T06:13:03.716Z,48.37
2017-06-26T06:14:03.751Z,48.37
2017-06-26T06:15:03.778Z,48.37
2017-06-26T06:16:03.810Z,47.69
2017-06-26T06:17:03.841Z,47.78
2017-06-26T06:18:03.871Z,47.98
2017-06-26T06:19:03.893Z,48.08
2017-06-26T06:20:03.926Z,47.59
2017-06-26T06:21:03.958Z,48.08
2017-06-26T06:22:03.675Z,47.88
2017-06-26T06:23:04.025Z,48.18
2017-06-26T06:24:04.048Z,48.37
2017-06-26T06:25:04.078Z,47.88
2017-06-26T06:26:03.791Z,47.88
2017-06-26T06:27:03.823Z,47.78
2017-06-26T06:28:04.157Z,48.08
2017-06-26T06:29:03.897Z,47.88
2017-06-26T06:30:03.910Z,47.78
2017-06-26T06:31:04.255Z,48.37
2017-06-26T06:32:04.279Z,48.08
2017-06-26T06:33:04.305Z,47.88
2017-06-26T06:34:04.028Z,47.88
2017-06-26T06:35:04.373Z,47.88
2017-06-26T06:36:04.400Z,47.78
2017-06-26T06:37:04.435Z,47.88
2017-06-26T06:38:04.461Z,47.78
2017-06-26T06:39:04.485Z,47.98
2017-06-26T06:40:04.518Z,47.98
2017-06-26T06:41:04.543Z,47.59
2017-06-26T06:42:04.572Z,47.59
2017-06-26T06:43:04.294Z,47.49
2017-06-26T06:44:04.325Z,47.69
2017-06-26T06:45:04.661Z,47.69
2017-06-26T06:46:04.696Z,47.69
2017-06-26T06:47:04.728Z,47.49
2017-06-26T06:48:04.766Z,47.49
2017-06-26T06:49:04.786Z,47.98
2017-06-26T06:50:04.811Z,47.59
2017-06-26T06:51:04.844Z,47.78
2017-06-26T06:52:04.872Z,47.88
2017-06-26T06:53:04.904Z,47.69
2017-06-26T06:54:04.933Z,48.08
2017-06-26T06:55:04.967Z,47.98
2017-06-26T06:56:04.997Z,47.69
2017-06-26T06:57:05.019Z,47.59
2017-06-26T06:58:04.737Z,47.88
2017-06-26T06:59:05.329Z,48.08
2017-06-26T07:00:05.103Z,47.78
2017-06-26T07:01:04.827Z,48.08
2017-06-26T07:02:05.171Z,47.98
2017-06-26T07:03:05.195Z,47.78
2017-06-26T07:04:05.477Z,47.59
2017-06-26T07:05:04.939Z,48.08
2017-06-26T07:06:04.976Z,48.08
2017-06-26T07:07:05.320Z,47.98
2017-06-26T07:08:05.031Z,47.98
2017-06-26T07:09:05.673Z,47.78
2017-06-26T07:10:05.407Z,47.59
2017-06-26T07:11:05.434Z,47.71
2017-06-26T07:12:05.468Z,47.4
2017-06-26T07:13:05.493Z,47.4
2017-06-26T07:14:05.822Z,47.78
2017-06-26T07:15:05.547Z,47.61
2017-06-26T07:16:05.578Z,47.61
2017-06-26T07:17:05.296Z,47.81
2017-06-26T07:18:05.629Z,47.42
2017-06-26T07:19:05.971Z,47.4
2017-06-26T07:20:05.389Z,47.3
2017-06-26T07:21:05.420Z,47.2
2017-06-26T07:22:05.760Z,47.3
2017-06-26T07:23:05.784Z,47.3
2017-06-26T07:24:05.759Z,47.13
2017-06-26T07:25:05.855Z,46.91
2017-06-26T07:26:05.875Z,46.91
2017-06-26T07:27:05.900Z,46.94
2017-06-26T07:28:05.929Z,46.72
2017-06-26T07:29:05.949Z,46.94
2017-06-26T07:30:05.999Z,46.84
2017-06-26T07:31:06.023Z,47.01
2017-06-26T07:32:06.057Z,46.84
2017-06-26T07:33:06.072Z,47.11
2017-06-26T07:34:06.414Z,46.74
2017-06-26T07:35:06.149Z,46.81
2017-06-26T07:36:06.169Z,46.74
2017-06-26T07:37:06.201Z,46.91
2017-06-26T07:38:05.917Z,46.81
2017-06-26T07:39:06.198Z,46.62
2017-06-26T07:40:06.284Z,46.55
2017-06-26T07:41:06.315Z,46.74
2017-06-26T07:42:06.352Z,46.52
2017-06-26T07:43:06.373Z,46.74
2017-06-26T07:44:06.658Z,46.64
2017-06-26T07:45:06.439Z,47.03
2017-06-26T07:46:06.495Z,46.62
2017-06-26T07:47:06.502Z,46.74
2017-06-26T07:48:06.525Z,47.03
2017-06-26T07:49:06.857Z,47.01
2017-06-26T07:50:06.583Z,47.03
2017-06-26T07:51:06.297Z,46.94
2017-06-26T07:52:06.333Z,47.23
2017-06-26T07:53:06.362Z,46.74
2017-06-26T07:54:06.387Z,46.74
2017-06-26T07:55:06.732Z,47.03
2017-06-26T07:56:06.452Z,46.55
2017-06-26T07:57:06.797Z,46.74
2017-06-26T07:58:06.516Z,46.64
2017-06-26T07:59:06.851Z,46.74
2017-06-26T08:00:06.877Z,46.64
2017-06-26T08:01:06.916Z,46.74
2017-06-26T08:02:06.942Z,46.64
2017-06-26T08:03:06.965Z,46.84
2017-06-26T08:04:06.687Z,46.94
2017-06-26T08:05:07.023Z,46.84
2017-06-26T08:06:06.741Z,46.94
2017-06-26T08:07:07.089Z,46.55
2017-06-26T08:08:07.117Z,46.74
2017-06-26T08:09:07.141Z,46.64
2017-06-26T08:10:07.184Z,46.74
2017-06-26T08:11:07.208Z,46.74
2017-06-26T08:12:07.236Z,46.25
2017-06-26T08:13:07.271Z,46.64
2017-06-26T08:14:06.979Z,46.64
2017-06-26T08:15:07.319Z,46.55
2017-06-26T08:16:07.045Z,46.74
2017-06-26T08:17:07.386Z,46.06
2017-06-26T08:18:07.411Z,46.55
2017-06-26T08:19:07.441Z,46.25
2017-06-26T08:20:07.159Z,46.35
2017-06-26T08:21:07.504Z,46.45
2017-06-26T08:22:07.226Z,46.25
2017-06-26T08:23:07.564Z,46.15
2017-06-26T08:24:07.595Z,46.15
2017-06-26T08:25:07.615Z,46.25
2017-06-26T08:26:07.344Z,45.97
2017-06-26T08:27:07.689Z,46.15
2017-06-26T08:28:07.707Z,45.97
2017-06-26T08:29:07.739Z,45.97
2017-06-26T08:30:07.774Z,45.87
2017-06-26T08:31:07.806Z,45.87
2017-06-26T08:32:07.829Z,46.25
2017-06-26T08:33:07.864Z,45.48
2017-06-26T08:34:07.882Z,46.35
2017-06-26T08:35:07.603Z,46.25
2017-06-26T08:36:07.947Z,46.25
2017-06-26T08:37:07.662Z,45.87
2017-06-26T08:38:08.005Z,46.06
2017-06-26T08:39:07.724Z,45.77
2017-06-26T08:40:08.069Z,45.67
2017-06-26T08:41:08.097Z,45.77
2017-06-26T08:42:08.130Z,45.48
2017-06-26T08:43:08.154Z,45.77
2017-06-26T08:44:08.187Z,46.25
2017-06-26T08:45:07.902Z,45.57
2017-06-26T08:46:08.241Z,45.77
2017-06-26T08:47:08.277Z,45.67
2017-06-26T08:48:08.298Z,45.87
2017-06-26T08:49:08.334Z,45.57
2017-06-26T08:50:08.664Z,45.87
2017-06-26T08:51:08.396Z,45.97
2017-06-26T08:52:08.430Z,45.57
2017-06-26T08:53:08.450Z,45.67
2017-06-26T08:54:08.479Z,45.38
2017-06-26T08:55:08.769Z,45.48
2017-06-26T08:56:08.229Z,45.57
2017-06-26T08:57:08.574Z,45.67
2017-06-26T08:58:08.600Z,45.48
2017-06-26T08:59:08.635Z,45.38
2017-06-26T09:00:08.956Z,45.67
2017-06-26T09:01:08.697Z,45.48
2017-06-26T09:02:08.410Z,45.6
2017-06-26T09:03:08.750Z,44.6
2017-06-26T09:04:08.779Z,45.18
2017-06-26T09:05:09.061Z,44.89
2017-06-26T09:06:08.529Z,45.09
2017-06-26T09:07:08.553Z,45.38
2017-06-26T09:08:08.903Z,44.92
2017-06-26T09:09:08.930Z,45.57
2017-06-26T09:10:09.212Z,44.7
2017-06-26T09:11:08.984Z,45.18
2017-06-26T09:12:09.011Z,45.01
2017-06-26T09:13:09.042Z,45.38
2017-06-26T09:14:09.076Z,45.57
2017-06-26T09:15:09.351Z,45.48
2017-06-26T09:16:09.133Z,45.67
2017-06-26T09:17:09.169Z,45.38
2017-06-26T09:18:09.198Z,45.89
2017-06-26T09:19:09.218Z,45.77
2017-06-26T09:20:09.191Z,45.79
2017-06-26T09:21:09.289Z,45.98
2017-06-26T09:22:09.310Z,45.87
2017-06-26T09:23:09.035Z,45.48
2017-06-26T09:24:09.059Z,45.69
2017-06-26T09:25:09.709Z,45.67
2017-06-26T09:26:09.432Z,45.6
2017-06-26T09:27:09.466Z,45.87
2017-06-26T09:28:09.491Z,45.5
2017-06-26T09:29:09.548Z,45.69
2017-06-26T09:30:09.240Z,45.79
2017-06-26T09:31:09.581Z,45.6
2017-06-26T09:32:09.614Z,45.69
2017-06-26T09:33:09.640Z,45.6
2017-06-26T09:34:09.675Z,45.6
2017-06-26T09:35:09.704Z,45.69
2017-06-26T09:36:09.733Z,45.6
2017-06-26T09:37:09.762Z,45.69
2017-06-26T09:38:09.800Z,45.69
2017-06-26T09:39:09.511Z,45.69
2017-06-26T09:40:09.536Z,45.69
2017-06-26T09:41:09.574Z,45.89
2017-06-26T09:42:09.915Z,45.79
2017-06-26T09:43:09.942Z,45.89
2017-06-26T09:44:09.971Z,45.89
2017-06-26T09:45:10.004Z,45.69
2017-06-26T09:46:10.029Z,45.5
2017-06-26T09:47:10.062Z,45.69
2017-06-26T09:48:09.780Z,45.5
2017-06-26T09:49:10.128Z,45.79
2017-06-26T09:50:10.156Z,45.69
2017-06-26T09:51:10.178Z,45.69
2017-06-26T09:52:10.205Z,45.98
2017-06-26T09:53:09.931Z,45.89
2017-06-26T09:54:10.263Z,45.89
2017-06-26T09:55:10.297Z,45.6
2017-06-26T09:56:10.022Z,45.4
2017-06-26T09:57:10.361Z,45.52
2017-06-26T09:58:10.070Z,45.21
2017-06-26T09:59:10.415Z,45.6
2017-06-26T10:00:10.444Z,45.5
2017-06-26T10:01:10.483Z,45.52
2017-06-26T10:02:10.514Z,45.32
2017-06-26T10:03:10.543Z,45.52
2017-06-26T10:04:10.572Z,45.42
2017-06-26T10:05:10.597Z,45.32
2017-06-26T10:06:10.313Z,45.42
2017-06-26T10:07:10.347Z,45.52
2017-06-26T10:08:10.702Z,45.42
2017-06-26T10:09:10.400Z,45.42
2017-06-26T10:10:10.749Z,45.23
2017-06-26T10:11:10.468Z,45.14
2017-06-26T10:12:10.808Z,45.52
2017-06-26T10:13:10.836Z,45.14
2017-06-26T10:14:10.868Z,44.74
2017-06-26T10:15:10.897Z,45.23
2017-06-26T10:16:10.928Z,45.42
2017-06-26T10:17:10.962Z,45.72
2017-06-26T10:18:10.988Z,45.23
2017-06-26T10:19:10.704Z,45.52
2017-06-26T10:20:10.730Z,45.62
2017-06-26T10:21:11.017Z,45.42
2017-06-26T10:22:11.112Z,45.42
2017-06-26T10:23:11.140Z,45.42
2017-06-26T10:24:11.168Z,45.32
2017-06-26T10:25:11.192Z,45.52
2017-06-26T10:26:11.529Z,45.14
2017-06-26T10:27:11.259Z,44.94
2017-06-26T10:28:10.975Z,45.04
2017-06-26T10:29:11.311Z,44.94
2017-06-26T10:30:11.033Z,45.14
2017-06-26T10:31:11.633Z,44.55
2017-06-26T10:32:11.093Z,45.04
2017-06-26T10:33:11.123Z,44.35
2017-06-26T10:34:11.469Z,44.74
2017-06-26T10:35:11.497Z,44.84
2017-06-26T10:36:11.824Z,44.45
2017-06-26T10:37:11.558Z,44.55
2017-06-26T10:38:11.592Z,44.45
2017-06-26T10:39:11.622Z,44.55
2017-06-26T10:40:11.653Z,44.55
2017-06-26T10:41:11.927Z,44.74
2017-06-26T10:42:11.706Z,44.94
2017-06-26T10:43:11.428Z,44.55
2017-06-26T10:44:11.772Z,45.04
2017-06-26T10:45:11.802Z,45.23
2017-06-26T10:46:11.766Z,44.94
2017-06-26T10:47:11.858Z,44.74
2017-06-26T10:48:11.883Z,44.35
2017-06-26T10:49:11.919Z,44.94
2017-06-26T10:50:11.957Z,44.48
2017-06-26T10:51:12.233Z,44.26
2017-06-26T10:52:12.006Z,44.16
2017-06-26T10:53:11.732Z,44.18
2017-06-26T10:54:12.074Z,44.18
2017-06-26T10:55:12.099Z,43.4
2017-06-26T10:56:12.429Z,44.28
2017-06-26T10:57:12.152Z,43.7
2017-06-26T10:58:12.189Z,44.28
2017-06-26T10:59:12.224Z,43.7
2017-06-26T11:00:12.252Z,43.7
2017-06-26T11:01:12.585Z,43.7
2017-06-26T11:02:12.315Z,43.89
2017-06-26T11:03:12.032Z,43.6
2017-06-26T11:04:12.373Z,43.5
2017-06-26T11:05:12.401Z,43.4
2017-06-26T11:06:12.430Z,43.6
2017-06-26T11:07:12.463Z,43.5
2017-06-26T11:08:12.185Z,43.5
2017-06-26T11:09:12.517Z,43.6
2017-06-26T11:10:12.544Z,43.01
2017-06-26T11:11:12.586Z,43.7
2017-06-26T11:12:12.611Z,43.11
2017-06-26T11:13:12.635Z,42.91
2017-06-26T11:14:12.671Z,42.91
2017-06-26T11:15:12.385Z,43.01
2017-06-26T11:16:12.730Z,43.01
2017-06-26T11:17:12.762Z,43.11
2017-06-26T11:18:12.788Z,42.91
2017-06-26T11:19:12.816Z,43.01
2017-06-26T11:20:12.849Z,43.11
2017-06-26T11:21:12.562Z,43.21
2017-06-26T11:22:12.602Z,42.72
2017-06-26T11:23:12.941Z,43.11
2017-06-26T11:24:12.976Z,43.21
2017-06-26T11:25:13.009Z,42.94
2017-06-26T11:26:12.730Z,43.11
2017-06-26T11:27:13.067Z,43.01
2017-06-26T11:28:13.088Z,43.01
2017-06-26T11:29:13.128Z,42.84
2017-06-26T11:30:13.160Z,42.91
2017-06-26T11:31:13.189Z,43.01
2017-06-26T11:32:13.215Z,42.82
2017-06-26T11:33:13.243Z,43.11
2017-06-26T11:34:13.280Z,42.91
2017-06-26T11:35:13.317Z,43.04
2017-06-26T11:36:13.341Z,42.74
2017-06-26T11:37:13.370Z,42.65
2017-06-26T11:38:13.091Z,42.84
2017-06-26T11:39:13.429Z,42.94
2017-06-26T11:40:13.464Z,42.06
2017-06-26T11:41:13.182Z,42.06
2017-06-26T11:42:13.520Z,41.79
2017-06-26T11:43:13.549Z,41.99
2017-06-26T11:44:13.584Z,41.32
2017-06-26T11:45:13.302Z,41.13
2017-06-26T11:46:13.642Z,41.32
2017-06-26T11:47:13.367Z,40.66
2017-06-26T11:48:13.708Z,40.56
2017-06-26T11:49:13.427Z,39.9
2017-06-26T11:50:13.777Z,39.02
2017-06-26T11:51:13.495Z,39.53
2017-06-26T11:52:13.834Z,38.75
2017-06-26T11:53:13.869Z,38.55
2017-06-26T11:54:13.900Z,38.09
2017-06-26T11:55:13.934Z,37.7
2017-06-26T11:56:13.970Z,37.02
2017-06-26T11:57:13.999Z,36.83
2017-06-26T11:58:14.036Z,36.54
2017-06-26T11:59:14.070Z,36.16
2017-06-26T12:00:13.812Z,36.16
2017-06-26T12:01:14.135Z,36.46
2017-06-26T12:02:13.860Z,35.5
2017-06-26T12:03:14.200Z,35.01
2017-06-26T12:04:14.232Z,35.71
2017-06-26T12:05:14.270Z,34.93
2017-06-26T12:06:14.302Z,34.64
2017-06-26T12:07:14.341Z,35.04
2017-06-26T12:08:14.372Z,34.84
2017-06-26T12:09:14.404Z,34.16
2017-06-26T12:10:14.438Z,34.18
2017-06-26T12:11:14.471Z,33.98
2017-06-26T12:12:14.506Z,34.08
2017-06-26T12:13:14.537Z,33.9
2017-06-26T12:14:14.569Z,33.7
2017-06-26T12:15:14.611Z,33.7
2017-06-26T12:16:14.645Z,33.31
2017-06-26T12:17:14.359Z,33.22
2017-06-26T12:18:14.712Z,32.54
2017-06-26T12:19:14.745Z,32.54
2017-06-26T12:20:14.500Z,32.84
2017-06-26T12:21:14.811Z,32.95
2017-06-26T12:22:14.847Z,32.76
2017-06-26T12:23:14.887Z,32.37
2017-06-26T12:24:14.922Z,32.56
2017-06-26T12:25:14.654Z,32.37
2017-06-26T12:26:14.670Z,32.18
2017-06-26T12:27:14.718Z,32.28
2017-06-26T12:28:15.056Z,31.89
2017-06-26T12:29:15.093Z,31.79
2017-06-26T12:30:15.127Z,31.71
2017-06-26T12:31:15.171Z,31.9
2017-06-26T12:32:14.891Z,31.51
2017-06-26T12:33:15.233Z,31.32
2017-06-26T12:34:14.965Z,31.32
2017-06-26T12:35:15.310Z,31.22
2017-06-26T12:36:15.342Z,31.02
2017-06-26T12:37:15.384Z,31.51
2017-06-26T12:38:15.418Z,31.22
2017-06-26T12:39:15.449Z,30.94
2017-06-26T12:40:15.490Z,30.74
2017-06-26T12:41:15.530Z,31.04
2017-06-26T12:42:15.558Z,31.23
2017-06-26T12:43:15.598Z,30.84
2017-06-26T12:44:15.323Z,30.25
2017-06-26T12:45:15.356Z,30.25
2017-06-26T12:46:15.704Z,30.94
2017-06-26T12:47:15.733Z,30.07
2017-06-26T12:48:15.776Z,30.07
2017-06-26T12:49:15.830Z,30.17
2017-06-26T12:50:15.846Z,29.97
2017-06-26T12:51:15.571Z,29.68
2017-06-26T12:52:16.220Z,29.68
2017-06-26T12:53:15.949Z,29.77
2017-06-26T12:54:15.990Z,29.68
2017-06-26T12:55:15.718Z,29.77
2017-06-26T12:56:16.069Z,29.87